Time;durP1;ratioP1;P1;durP2;ratioP2;P2;SDS_P1;SDS_P2;PMS_P1;PMS_P2;Temp;Humidity;BMP_temperature;BMP_pressure;BME280_temperature;BME280_humidity;BME280_pressure;Samples;Min_cycle;Max_cycle;Signal;HPM_P1;HPM_P2
2020/12/30 00:00:29;;;;;;;26.27;13.60;;;;;;;3.81;73.85;99359.23;1666383;84;26248;-80
2020/12/30 00:02:58;;;;;;;33.38;15.08;;;;;;;3.79;73.69;99357.75;1659242;85;25770;-80
2020/12/30 00:05:26;;;;;;;32.28;14.53;;;;;;;3.76;73.69;99360.23;1665649;84;27825;-80
2020/12/30 00:07:53;;;;;;;28.75;14.60;;;;;;;3.75;73.64;99361.75;1620759;85;26271;-80
2020/12/30 00:10:22;;;;;;;31.90;15.83;;;;;;;3.74;73.60;99371.51;1648203;85;25826;-80
2020/12/30 00:12:50;;;;;;;33.95;15.70;;;;;;;3.70;73.52;99364.11;1652838;85;25939;-81
2020/12/30 00:15:20;;;;;;;29.55;15.13;;;;;;;3.67;73.52;99367.09;1590412;86;26103;-80
2020/12/30 00:17:47;;;;;;;30.62;15.85;;;;;;;3.65;73.39;99366.44;1631444;85;28494;-80
2020/12/30 00:20:18;;;;;;;29.87;14.13;;;;;;;3.61;73.38;99371.76;1640997;85;25822;-80
2020/12/30 00:22:45;;;;;;;33.30;14.13;;;;;;;3.58;73.35;99372.09;1651079;85;25869;-80
2020/12/30 00:25:14;;;;;;;30.90;14.75;;;;;;;3.52;73.45;99373.61;1646147;85;25482;-80
2020/12/30 00:27:43;;;;;;;33.83;15.45;;;;;;;3.50;73.45;99370.31;1642812;85;25800;-80
2020/12/30 00:30:14;;;;;;;35.85;16.32;;;;;;;3.46;73.43;99375.63;1641523;85;26312;-81
2020/12/30 00:32:43;;;;;;;57.70;21.97;;;;;;;3.45;73.37;99380.58;1648421;85;25857;-81
2020/12/30 00:35:13;;;;;;;62.62;24.43;;;;;;;3.42;73.30;99377.45;1588991;86;25860;-81
2020/12/30 00:37:41;;;;;;;44.83;19.52;;;;;;;3.38;73.29;99376.95;1683859;82;25862;-80
2020/12/30 00:40:09;;;;;;;41.05;18.00;;;;;;;3.34;73.23;99378.78;1640401;85;25817;-80
2020/12/30 00:42:39;;;;;;;40.73;17.25;;;;;;;3.27;73.45;99373.87;1652998;85;28372;-81
2020/12/30 00:45:09;;;;;;;31.80;15.05;;;;;;;3.23;73.49;99383.14;1609531;85;25861;-80
2020/12/30 00:47:36;;;;;;;34.27;17.07;;;;;;;3.10;73.03;99381.83;1630144;86;26382;-80
2020/12/30 00:50:06;;;;;;;38.23;16.45;;;;;;;2.95;73.33;99389.32;1648777;85;25653;-81
2020/12/30 00:52:34;;;;;;;31.75;16.07;;;;;;;2.88;73.62;99383.87;1663257;85;25786;-80
2020/12/30 00:55:03;;;;;;;33.45;16.42;;;;;;;2.82;73.81;99385.03;1609691;86;28507;-84
2020/12/30 00:57:33;;;;;;;33.42;15.18;;;;;;;2.75;73.97;99394.13;1624772;85;25897;-81
2020/12/30 01:00:01;;;;;;;36.55;16.15;;;;;;;2.74;74.01;99395.11;1627485;86;25869;-81
2020/12/30 01:02:30;;;;;;;37.70;16.85;;;;;;;2.68;74.05;99391.81;1651565;85;25774;-80
2020/12/30 01:04:57;;;;;;;30.25;15.28;;;;;;;2.64;74.28;99394.45;1610508;86;26233;-80
2020/12/30 01:07:24;;;;;;;32.17;16.25;;;;;;;2.66;74.44;99394.28;1606591;86;27558;-80
2020/12/30 01:09:52;;;;;;;37.40;17.27;;;;;;;2.68;74.40;99389.66;1633911;86;25882;-80
2020/12/30 01:12:19;;;;;;;29.90;15.35;;;;;;;2.65;74.38;99390.80;1658439;86;25889;-80
2020/12/30 01:14:47;;;;;;;33.95;16.67;;;;;;;2.65;74.44;99388.16;1611413;86;25845;-78
2020/12/30 01:17:14;;;;;;;39.20;16.12;;;;;;;2.65;74.52;99391.33;1632258;86;25780;-78
2020/12/30 01:19:42;;;;;;;34.83;15.20;;;;;;;2.54;74.36;99390.33;1633074;86;27393;-77
2020/12/30 01:22:09;;;;;;;27.07;13.78;;;;;;;2.50;74.79;99388.52;1656815;86;26451;-79
2020/12/30 01:24:36;;;;;;;28.07;14.00;;;;;;;2.46;74.60;99395.62;1597686;86;25835;-80
2020/12/30 01:27:04;;;;;;;32.98;16.52;;;;;;;2.32;74.58;99399.23;1602565;86;25864;-79
2020/12/30 01:29:31;;;;;;;36.93;16.73;;;;;;;2.22;74.78;99409.11;1627406;86;25875;-78
2020/12/30 01:31:59;;;;;;;32.60;14.10;;;;;;;2.21;74.93;99406.64;1657357;86;28459;-78
2020/12/30 01:34:26;;;;;;;35.20;15.32;;;;;;;2.20;74.90;99402.36;1617940;85;25785;-79
2020/12/30 01:36:54;;;;;;;38.63;16.23;;;;;;;2.21;75.24;99405.31;1573676;86;25442;-81
2020/12/30 01:39:21;;;;;;;30.25;15.25;;;;;;;2.24;75.42;99406.33;1635085;86;25799;-79
2020/12/30 01:41:49;;;;;;;35.15;16.40;;;;;;;2.20;75.50;99396.56;1633694;86;26466;-79
2020/12/30 01:44:16;;;;;;;34.75;15.13;;;;;;;2.22;75.63;99399.06;1590803;86;27533;-81
2020/12/30 01:46:47;;;;;;;33.53;17.00;;;;;;;2.24;75.65;99408.48;1627112;85;26181;-82
2020/12/30 01:49:17;;;;;;;;;;;;;;;2.29;75.87;99404.00;1635380;86;26512;-79
2020/12/30 01:51:45;;;;;;;61.20;25.05;;;;;;;2.33;75.83;99411.96;1624722;86;25552;-77
2020/12/30 01:54:15;;;;;;;55.03;23.67;;;;;;;2.34;75.97;99412.28;1618003;85;26473;-77
2020/12/30 01:56:43;;;;;;;74.77;31.07;;;;;;;2.36;75.91;99411.62;1672255;84;28501;-77
2020/12/30 01:59:17;;;;;;;71.40;29.72;;;;;;;2.38;75.82;99412.28;1633334;86;25897;-77
2020/12/30 02:02:04;;;;;;;64.37;27.50;;;;;;;2.41;75.80;99410.64;1611014;86;25925;-76
2020/12/30 02:04:49;;;;;;;64.40;28.40;;;;;;;2.44;75.78;99415.58;1633317;86;26384;-79
2020/12/30 02:07:24;;;;;;;70.17;30.75;;;;;;;2.55;75.80;99415.75;1840543;77;26341;-79
2020/12/30 02:09:57;;;;;;;80.17;34.50;;;;;;;2.51;75.74;99419.72;1746038;79;25827;-79
2020/12/30 02:12:27;;;;;;;75.35;33.05;;;;;;;2.51;75.47;99418.40;1769464;79;27304;-79
2020/12/30 02:14:54;;;;;;;76.37;32.60;;;;;;;2.49;75.48;99421.70;1790400;79;25754;-79
2020/12/30 02:17:22;;;;;;;69.65;29.52;;;;;;;2.51;75.63;99413.95;1701488;82;25831;-79
2020/12/30 02:19:49;;;;;;;71.07;30.68;;;;;;;2.55;75.55;99414.43;1701431;82;25727;-79
2020/12/30 02:22:21;;;;;;;72.32;32.83;;;;;;;2.54;75.57;99420.23;1701426;82;25890;-79
2020/12/30 02:24:48;;;;;;;75.35;33.05;;;;;;;2.51;75.22;99423.20;1733676;82;28483;-79
2020/12/30 02:27:15;;;;;;;67.97;31.20;;;;;;;2.50;75.28;99423.37;1696064;81;26231;-79
2020/12/30 02:29:43;;;;;;;50.73;24.65;;;;;;;2.47;75.18;99428.97;1721990;81;26520;-79
2020/12/30 02:32:10;;;;;;;39.35;18.25;;;;;;;2.42;75.19;99429.98;1675549;82;25847;-79
2020/12/30 02:34:37;;;;;;;40.65;19.17;;;;;;;2.34;75.29;99430.77;1726011;81;26358;-79
2020/12/30 02:37:05;;;;;;;35.48;18.35;;;;;;;2.28;75.28;99433.59;1697709;81;27805;-79
2020/12/30 02:39:32;;;;;;;35.58;18.77;;;;;;;2.24;75.26;99435.39;1703801;82;25766;-79
2020/12/30 02:41:59;;;;;;;37.78;17.12;;;;;;;2.18;75.39;99436.84;1717042;81;26036;-79
2020/12/30 02:44:27;;;;;;;33.05;17.05;;;;;;;2.16;75.42;99440.66;1732294;82;26186;-79
2020/12/30 02:46:55;;;;;;;49.38;20.95;;;;;;;2.11;75.35;99443.78;1700671;83;25748;-79
2020/12/30 02:49:23;;;;;;;122.50;38.80;;;;;;;2.08;75.54;99434.02;1731022;81;28472;-79
2020/12/30 02:51:50;;;;;;;134.67;44.60;;;;;;;2.06;75.66;99431.54;1727300;81;25873;-79
2020/12/30 02:54:18;;;;;;;141.30;49.85;;;;;;;2.10;75.97;99432.03;1724951;81;25906;-79
2020/12/30 02:56:46;;;;;;;149.27;50.10;;;;;;;2.11;75.91;99422.66;1692573;82;26273;-79
2020/12/30 02:59:13;;;;;;;169.95;55.58;;;;;;;2.14;75.92;99418.83;1725950;81;25913;-79
2020/12/30 03:01:44;;;;;;;169.10;54.38;;;;;;;2.15;75.90;99421.82;1727599;81;28287;-79
2020/12/30 03:04:11;;;;;;;132.05;46.25;;;;;;;2.16;75.99;99424.81;1748009;81;25870;-79
2020/12/30 03:06:39;;;;;;;62.50;28.30;;;;;;;2.15;76.01;99416.05;1639014;81;26310;-79
2020/12/30 03:09:06;;;;;;;44.03;20.60;;;;;;;2.12;75.83;99417.69;1726125;81;25792;-79
2020/12/30 03:11:33;;;;;;;36.88;18.02;;;;;;;1.99;75.37;99415.19;1700902;81;26477;-79
2020/12/30 03:14:01;;;;;;;32.50;15.75;;;;;;;1.87;75.43;99418.61;1738743;81;27308;-79
2020/12/30 03:16:28;;;;;;;39.25;17.98;;;;;;;1.78;75.67;99416.09;1685439;82;26183;-79
2020/12/30 03:18:55;;;;;;;32.13;16.82;;;;;;;1.74;75.82;99420.88;1704248;82;25875;-79
2020/12/30 03:21:23;;;;;;;34.30;16.75;;;;;;;1.72;75.67;99420.20;1723251;81;25913;-79
2020/12/30 03:23:50;;;;;;;34.38;16.60;;;;;;;1.69;75.68;99420.52;1723434;81;25877;-79
2020/12/30 03:26:18;;;;;;;35.35;17.50;;;;;;;1.66;75.89;99424.80;1678808;81;27550;-78
2020/12/30 03:28:45;;;;;;;32.53;16.32;;;;;;;1.64;76.12;99430.73;1693180;81;25901;-80
2020/12/30 03:31:12;;;;;;;30.68;15.30;;;;;;;1.59;76.09;99427.73;1758487;81;25855;-79
2020/12/30 03:33:40;;;;;;;27.25;14.98;;;;;;;1.52;76.09;99427.54;1753635;81;26179;-79
2020/12/30 03:36:07;;;;;;;33.18;15.80;;;;;;;1.43;75.95;99427.67;1674299;81;25757;-79
2020/12/30 03:38:34;;;;;;;31.12;15.10;;;;;;;1.38;76.22;99425.50;1729716;81;28475;-79
2020/12/30 03:41:03;;;;;;;37.28;16.27;;;;;;;1.39;76.32;99432.41;1728708;81;25893;-79
2020/12/30 03:43:30;;;;;;;32.85;16.40;;;;;;;1.40;76.39;99432.77;1753733;80;25788;-79
2020/12/30 03:45:57;;;;;;;31.25;15.85;;;;;;;1.41;76.48;99435.72;1699948;82;25885;-79
2020/12/30 03:48:26;;;;;;;33.67;16.20;;;;;;;1.43;76.55;99432.95;1667198;82;25741;-79
2020/12/30 03:50:53;;;;;;;32.95;18.32;;;;;;;1.47;76.60;99429.01;1722553;81;27263;-79
2020/12/30 03:53:20;;;;;;;33.98;18.82;;;;;;;1.50;76.62;99429.51;1732810;82;25778;-78
2020/12/30 03:55:48;;;;;;;35.65;16.42;;;;;;;1.51;76.49;99436.45;1696572;82;25907;-79
2020/12/30 03:58:15;;;;;;;31.37;15.93;;;;;;;1.53;76.59;99434.48;1724986;81;25816;-79
2020/12/30 04:00:42;;;;;;;29.95;15.65;;;;;;;1.57;76.57;99440.27;1668170;81;26047;-79
2020/12/30 04:03:09;;;;;;;31.95;15.88;;;;;;;1.56;76.56;99442.06;1711730;81;28239;-79
2020/12/30 04:05:37;;;;;;;27.05;14.40;;;;;;;1.57;76.55;99436.30;1671398;81;26299;-79
2020/12/30 04:08:04;;;;;;;33.42;14.18;;;;;;;1.57;76.61;99429.70;1697495;82;26327;-79
2020/12/30 04:10:31;;;;;;;27.17;14.70;;;;;;;1.56;76.55;99434.15;1692643;83;26201;-79
2020/12/30 04:12:59;;;;;;;26.00;14.07;;;;;;;1.58;76.55;99434.81;1731283;82;26115;-79
2020/12/30 04:15:26;;;;;;;31.82;15.43;;;;;;;1.54;76.51;99430.01;1679314;82;28175;-79
2020/12/30 04:17:53;;;;;;;30.57;16.27;;;;;;;1.50;76.50;99433.47;1709790;82;26232;-79
2020/12/30 04:20:21;;;;;;;30.45;15.28;;;;;;;1.48;76.53;99431.48;1696069;82;25863;-79
2020/12/30 04:22:48;;;;;;;26.10;13.85;;;;;;;1.50;76.79;99426.87;1692385;83;26191;-79
2020/12/30 04:25:15;;;;;;;25.68;13.08;;;;;;;1.50;76.75;99427.35;1688380;83;25518;-79
2020/12/30 04:27:43;;;;;;;29.80;15.23;;;;;;;1.47;76.68;99432.97;1697290;81;28541;-79
2020/12/30 04:30:10;;;;;;;29.15;14.53;;;;;;;1.44;76.83;99424.03;1723059;82;25941;-79
2020/12/30 04:32:37;;;;;;;33.78;16.37;;;;;;;1.44;76.95;99429.31;1712406;82;25989;-80
2020/12/30 04:35:05;;;;;;;28.80;14.50;;;;;;;1.45;76.94;99425.70;1679401;82;25632;-79
2020/12/30 04:37:33;;;;;;;24.02;13.85;;;;;;;1.45;76.84;99422.55;1690351;83;26121;-79
2020/12/30 04:40:00;;;;;;;30.82;16.20;;;;;;;1.44;76.68;99418.75;1713752;82;27471;-79
2020/12/30 04:42:34;;;;;;;28.67;15.15;;;;;;;1.43;76.67;99415.28;1733151;81;25824;-79
2020/12/30 04:45:10;;;;;;;29.87;14.73;;;;;;;1.40;76.73;99418.25;1690645;82;25764;-79
2020/12/30 04:47:38;;;;;;;33.25;16.52;;;;;;;1.38;76.61;99425.98;1685379;82;25730;-79
2020/12/30 04:50:06;;;;;;;36.48;15.48;;;;;;;1.38;76.71;99424.18;1713407;82;25820;-79
2020/12/30 04:52:33;;;;;;;31.95;16.70;;;;;;;1.39;76.54;99419.22;1727435;82;28456;-80
2020/12/30 04:55:03;;;;;;;30.88;15.15;;;;;;;1.36;76.55;99435.38;1688855;81;25822;-79
2020/12/30 04:57:43;;;;;;;32.08;15.65;;;;;;;1.35;76.80;99431.56;1712793;81;26487;-80
2020/12/30 05:00:12;;;;;;;30.82;15.10;;;;;;;1.36;76.77;99435.87;1712827;82;25763;-79
2020/12/30 05:02:44;;;;;;;29.20;15.85;;;;;;;1.35;76.71;99436.35;1732821;81;26449;-79
2020/12/30 05:05:12;;;;;;;32.65;18.02;;;;;;;1.35;76.59;99440.80;1709878;82;28752;-79
2020/12/30 05:07:42;;;;;;;38.25;20.80;;;;;;;1.34;76.63;99442.63;1691340;83;25948;-79
2020/12/30 05:10:09;;;;;;;35.83;20.17;;;;;;;1.35;76.76;99453.98;1691400;83;35016;-79
2020/12/30 05:12:38;;;;;;;39.63;21.15;;;;;;;1.35;77.00;99459.27;1726064;81;25848;-79
2020/12/30 05:15:05;;;;;;;40.75;22.07;;;;;;;1.38;77.23;99452.37;1692084;82;26335;-79
2020/12/30 05:17:35;;;;;;;36.90;21.00;;;;;;;1.40;77.36;99447.77;1691010;82;27742;-79
2020/12/30 05:20:09;;;;;;;31.70;16.50;;;;;;;1.37;77.37;99448.89;1733107;82;25922;-79
2020/12/30 05:22:36;;;;;;;28.50;15.00;;;;;;;1.27;77.14;99460.05;1736971;82;26570;-79
2020/12/30 05:25:06;;;;;;;38.00;15.60;;;;;;;1.25;77.14;99459.87;1668791;82;25796;-79
2020/12/30 05:27:36;;;;;;;27.15;13.58;;;;;;;1.22;77.19;99460.20;1716196;82;25834;-80
2020/12/30 05:30:05;;;;;;;29.40;15.93;;;;;;;1.21;77.24;99464.64;1713104;82;27994;-79
2020/12/30 05:32:37;;;;;;;30.10;15.28;;;;;;;1.20;77.39;99468.72;1736720;82;25716;-79
2020/12/30 05:35:05;;;;;;;31.85;14.73;;;;;;;1.25;77.62;99475.70;1697889;82;25982;-79
2020/12/30 05:37:35;;;;;;;31.75;16.00;;;;;;;1.18;77.52;99472.01;1711787;82;25424;-79
2020/12/30 05:40:06;;;;;;;30.17;15.23;;;;;;;1.18;77.74;99479.44;1722888;82;25827;-79
2020/12/30 05:42:33;;;;;;;30.82;16.10;;;;;;;1.21;77.82;99481.78;1699057;82;27618;-79
2020/12/30 05:45:01;;;;;;;35.63;18.67;;;;;;;1.25;77.98;99480.48;1706534;82;25353;-79
2020/12/30 05:47:29;;;;;;;37.10;18.62;;;;;;;1.30;78.24;99490.09;1705088;82;25893;-79
2020/12/30 05:49:57;;;;;;;34.30;19.05;;;;;;;1.35;78.34;99489.59;1729281;82;25918;-79
2020/12/30 05:52:26;;;;;;;38.50;19.85;;;;;;;1.37;78.38;99483.19;1692640;83;26491;-80
2020/12/30 05:54:57;;;;;;;38.25;21.77;;;;;;;1.40;78.48;99486.02;1697394;82;27536;-79
2020/12/30 05:57:30;;;;;;;32.88;17.48;;;;;;;1.43;78.58;99478.61;1723219;82;35087;-79
2020/12/30 06:00:13;;;;;;;38.02;18.90;;;;;;;1.45;78.66;99472.68;1729686;82;25760;-79
2020/12/30 06:02:45;;;;;;;35.68;18.07;;;;;;;1.46;78.84;99470.39;1682350;82;25733;-79
2020/12/30 06:05:19;;;;;;;33.83;17.02;;;;;;;1.47;78.92;99468.59;1703517;82;25857;-79
2020/12/30 06:07:50;;;;;;;33.70;18.02;;;;;;;1.49;78.98;99471.41;1715466;81;27307;-79
2020/12/30 06:10:21;;;;;;;39.85;19.10;;;;;;;1.52;79.04;99478.16;1751167;81;26142;-79
2020/12/30 06:12:52;;;;;;;34.90;20.50;;;;;;;1.57;79.24;99485.13;1686980;83;25790;-79
2020/12/30 06:15:32;;;;;;;35.88;21.65;;;;;;;1.62;79.16;99488.63;1683140;82;26581;-79
2020/12/30 06:18:05;;;;;;;66.25;35.55;;;;;;;1.64;79.24;99493.25;1759256;80;25850;-79
2020/12/30 06:20:38;;;;;;;72.95;38.30;;;;;;;1.69;79.34;99496.25;1785075;79;27518;-78
2020/12/30 06:23:12;;;;;;;79.47;40.28;;;;;;;1.74;79.50;99497.91;1731291;80;25865;-78
2020/12/30 06:25:43;;;;;;;83.72;40.85;;;;;;;1.79;79.53;99510.99;1707410;82;25849;-78
2020/12/30 06:28:18;;;;;;;63.45;31.55;;;;;;;1.82;79.49;99508.53;1761090;80;25886;-79
2020/12/30 06:30:48;;;;;;;62.13;28.73;;;;;;;1.79;79.59;99504.39;1780149;80;26031;-78
2020/12/30 06:33:22;;;;;;;64.93;36.00;;;;;;;1.80;79.69;99500.75;1703889;80;27773;-79
2020/12/30 06:35:56;;;;;;;61.75;31.10;;;;;;;1.85;79.83;99499.80;1738276;80;25766;-79
2020/12/30 06:38:26;;;;;;;62.67;34.85;;;;;;;1.89;79.85;99496.33;1751690;80;25711;-79
2020/12/30 06:40:57;;;;;;;69.00;37.20;;;;;;;1.94;79.85;99506.77;1762325;80;25622;-79
2020/12/30 06:43:40;;;;;;;65.20;38.90;;;;;;;1.99;79.87;99511.58;1757614;80;25898;-79
2020/12/30 06:46:12;;;;;;;69.20;36.60;;;;;;;1.99;79.82;99512.39;1761831;80;28535;-79
2020/12/30 06:49:01;;;;;;;61.77;35.15;;;;;;;2.00;79.84;99506.13;1792248;79;26452;-79
2020/12/30 06:51:38;;;;;;;62.35;38.00;;;;;;;1.98;80.00;99509.91;1784762;80;26314;-79
2020/12/30 06:54:06;;;;;;;64.97;37.73;;;;;;;1.97;80.12;99510.89;1763818;80;25843;-79
2020/12/30 06:56:42;;;;;;;67.67;40.88;;;;;;;2.01;80.27;99515.70;1710567;80;26157;-79
2020/12/30 06:59:29;;;;;;;67.35;38.70;;;;;;;2.08;80.18;99519.85;1753897;79;26491;-79
2020/12/30 07:02:04;;;;;;;63.48;39.67;;;;;;;2.08;80.18;99520.69;1759360;79;25756;-79
2020/12/30 07:04:37;;;;;;;59.35;33.25;;;;;;;2.09;80.33;99522.84;1714210;80;25826;-79
2020/12/30 07:07:20;;;;;;;51.15;27.95;;;;;;;2.14;80.35;99525.81;1762535;80;25861;-80
2020/12/30 07:09:48;;;;;;;50.00;26.85;;;;;;;2.15;80.27;99524.84;1758094;79;25800;-79
2020/12/30 07:12:16;;;;;;;55.90;29.40;;;;;;;2.14;80.24;99524.00;1745560;79;28517;-79
2020/12/30 07:14:43;;;;;;;48.33;28.67;;;;;;;2.10;80.12;99520.52;1721653;79;25608;-79
2020/12/30 07:17:10;;;;;;;63.10;34.38;;;;;;;2.09;80.30;99522.36;1743048;79;25944;-79
2020/12/30 07:22:17;;;;;;;64.80;35.45;;;;;;;2.18;80.50;99527.17;1800647;77;25839;-79
2020/12/30 07:24:53;;;;;;;67.55;36.80;;;;;;;2.19;80.53;99528.33;1745838;79;26304;-79
2020/12/30 07:27:24;;;;;;;63.78;36.42;;;;;;;2.24;80.58;99523.41;1756214;79;27308;-79
2020/12/30 07:29:51;;;;;;;51.75;30.88;;;;;;;2.25;80.47;99519.76;1749438;80;25722;-80
2020/12/30 07:32:18;;;;;;;42.88;24.12;;;;;;;2.24;80.30;99510.68;1689122;83;25804;-79
2020/12/30 07:34:52;;;;;;;41.80;23.35;;;;;;;2.23;80.18;99512.97;1624645;83;25800;-79
2020/12/30 07:37:21;;;;;;;38.90;21.55;;;;;;;2.23;80.23;99504.56;1672372;83;25985;-80
2020/12/30 07:39:49;;;;;;;41.35;21.62;;;;;;;2.26;80.29;99504.74;1681069;83;27593;-79
2020/12/30 07:42:24;;;;;;;36.95;20.75;;;;;;;2.27;80.22;99508.53;1623853;85;25831;-79
2020/12/30 07:44:58;;;;;;;35.38;18.55;;;;;;;2.30;80.32;99507.39;1641536;85;25759;-80
2020/12/30 07:47:27;;;;;;;35.05;18.15;;;;;;;2.30;80.31;99505.59;1667870;85;25814;-79
2020/12/30 07:50:06;;;;;;;28.05;16.32;;;;;;;2.31;80.37;99496.66;1670427;85;25426;-79
2020/12/30 07:52:36;;;;;;;28.87;15.20;;;;;;;2.31;80.27;99497.97;1652943;83;26248;-80
2020/12/30 07:55:04;;;;;;;26.75;15.38;;;;;;;2.29;80.27;99495.98;1631164;85;25915;-79
2020/12/30 07:57:33;;;;;;;33.13;16.48;;;;;;;2.31;80.48;99497.14;1667160;85;26469;-80
2020/12/30 08:00:00;;;;;;;28.57;16.05;;;;;;;2.35;80.61;99498.50;1678452;82;25804;-79
2020/12/30 08:02:28;;;;;;;29.65;17.23;;;;;;;2.41;80.82;99503.63;1642925;83;26116;-80
2020/12/30 08:05:02;;;;;;;34.08;16.15;;;;;;;2.48;80.94;99498.03;1626670;85;27556;-80
2020/12/30 08:07:30;;;;;;;26.45;15.43;;;;;;;2.52;80.96;99496.23;1668873;83;25926;-79
2020/12/30 08:10:02;;;;;;;32.00;16.52;;;;;;;2.58;81.01;99501.34;1698327;83;25579;-79
2020/12/30 08:12:31;;;;;;;31.62;14.73;;;;;;;2.61;81.17;99503.16;1637977;85;25757;-79
2020/12/30 08:14:58;;;;;;;26.02;14.75;;;;;;;2.63;81.01;99499.86;1641751;84;26318;-79
2020/12/30 08:17:27;;;;;;;24.47;13.98;;;;;;;2.64;80.93;99493.59;1654232;84;28300;-79
2020/12/30 08:19:55;;;;;;;29.75;15.80;;;;;;;2.63;80.81;99504.34;1628173;85;26744;-80
2020/12/30 08:22:26;;;;;;;28.57;15.88;;;;;;;2.62;80.92;99493.42;1651130;83;25905;-80
2020/12/30 08:24:58;;;;;;;28.05;15.25;;;;;;;2.66;81.04;99498.22;1658199;84;25814;-79
2020/12/30 08:27:31;;;;;;;28.70;14.78;;;;;;;2.64;80.95;99492.77;1670851;84;25804;-79
2020/12/30 08:30:02;;;;;;;26.55;14.38;;;;;;;2.60;80.98;99497.56;1680641;83;27531;-79
2020/12/30 08:32:35;;;;;;;26.73;14.80;;;;;;;2.60;81.08;99501.52;1645644;85;26023;-79
2020/12/30 08:35:14;;;;;;;29.12;14.98;;;;;;;2.62;81.19;99499.55;1670857;82;26406;-80
2020/12/30 08:37:46;;;;;;;26.87;15.13;;;;;;;2.56;81.14;99500.20;1643842;85;25834;-79
2020/12/30 08:40:24;;;;;;;27.27;14.78;;;;;;;2.47;81.18;99502.97;1681451;84;26180;-79
2020/12/30 08:43:27;;;;;;;30.02;15.15;;;;;;;2.49;81.48;99507.11;1627044;85;27493;-79
2020/12/30 08:46:23;;;;;;;26.85;13.80;;;;;;;2.50;81.61;99498.70;1651832;85;26293;-79
2020/12/30 08:48:53;;;;;;;27.42;14.85;;;;;;;2.52;81.85;99496.72;1645331;85;26006;-79
2020/12/30 08:54:16;;;;;;;26.48;13.90;;;;;;;2.64;82.40;99491.44;1798779;79;25712;-79
2020/12/30 08:56:46;;;;;;;28.50;14.23;;;;;;;2.60;82.73;99488.80;1750821;80;25847;-79
2020/12/30 08:59:22;;;;;;;25.25;13.95;;;;;;;2.63;82.86;99492.45;1696739;82;27455;-79
2020/12/30 09:01:53;;;;;;;21.00;12.53;;;;;;;2.69;82.94;99489.14;1630061;85;25987;-79
2020/12/30 09:04:20;;;;;;;24.67;13.78;;;;;;;2.74;83.04;99494.26;1642093;84;26013;-79
2020/12/30 09:06:51;;;;;;;27.62;14.87;;;;;;;2.77;83.11;99487.33;1635876;85;25987;-79
2020/12/30 09:09:20;;;;;;;26.73;12.70;;;;;;;2.79;83.03;99489.80;1637610;85;25915;-79
2020/12/30 09:11:50;;;;;;;25.92;14.30;;;;;;;2.77;83.05;99501.05;1643356;84;28297;-79
2020/12/30 09:14:21;;;;;;;22.32;12.75;;;;;;;2.75;83.11;99488.00;1608099;84;26055;-79
2020/12/30 09:17:05;;;;;;;25.25;14.03;;;;;;;2.82;83.21;99493.45;1826829;77;25465;-79
2020/12/30 09:19:31;;;;;;;28.30;16.50;;;;;;;2.81;83.28;99499.23;1756500;80;26176;-79
2020/12/30 09:22:09;;;;;;;40.12;21.55;;;;;;;2.89;83.49;99494.43;1757353;80;27318;-79
2020/12/30 09:24:42;;;;;;;35.55;20.43;;;;;;;2.96;83.65;99496.75;1785878;80;26381;-78
2020/12/30 09:27:21;;;;;;;35.85;20.65;;;;;;;2.99;83.72;99501.20;1731547;80;25998;-79
2020/12/30 09:30:19;;;;;;;39.92;21.82;;;;;;;3.01;83.75;99493.96;1756083;80;25945;-79
2020/12/30 09:32:47;;;;;;;35.90;19.75;;;;;;;3.07;83.82;99501.23;1755516;80;25806;-79
2020/12/30 09:35:17;;;;;;;31.37;18.52;;;;;;;3.14;83.92;99493.46;1769819;80;28426;-80
2020/12/30 09:37:55;;;;;;;30.32;17.45;;;;;;;3.21;84.03;99497.07;1681975;83;25945;-80
2020/12/30 09:40:23;;;;;;;27.13;17.10;;;;;;;3.28;84.09;99492.77;1715051;81;25868;-79
2020/12/30 09:42:51;;;;;;;31.15;18.07;;;;;;;3.33;84.13;99490.46;1707856;82;26210;-80
2020/12/30 09:45:21;;;;;;;31.20;18.98;;;;;;;3.34;84.01;99494.75;1737493;82;26139;-80
2020/12/30 09:47:48;;;;;;;37.35;22.02;;;;;;;3.31;83.97;99490.30;1671494;82;28475;-80
2020/12/30 09:52:53;;;;;;;40.15;24.35;;;;;;;3.40;84.08;99488.78;1811881;77;25841;-80
2020/12/30 09:55:21;;;;;;;48.08;25.90;;;;;;;3.43;84.19;99493.75;1754394;80;26075;-80
2020/12/30 09:57:48;;;;;;;40.67;23.92;;;;;;;3.48;84.20;99488.78;1762609;78;26933;-80
2020/12/30 10:00:15;;;;;;;44.35;23.30;;;;;;;3.54;84.21;99495.22;1774184;78;25404;-81
2020/12/30 10:02:43;;;;;;;82.37;38.73;;;;;;;3.59;84.15;99498.99;1712704;80;25896;-80
2020/12/30 10:05:10;;;;;;;46.42;26.73;;;;;;;3.64;84.30;99494.03;1724112;80;25858;-78
2020/12/30 10:07:38;;;;;;;45.00;25.85;;;;;;;3.68;84.40;99495.34;1734129;81;25812;-78
2020/12/30 10:10:05;;;;;;;43.68;26.55;;;;;;;3.73;84.41;99494.34;1695101;80;28408;-78
2020/12/30 10:12:37;;;;;;;46.85;28.27;;;;;;;3.80;84.53;99491.35;1728109;81;25449;-77
2020/12/30 10:15:02;;;;;;;40.75;21.90;;;;;;;3.87;84.58;99491.50;1760042;80;25845;-78
2020/12/30 10:17:29;;;;;;;33.55;20.52;;;;;;;3.91;84.62;99494.12;1747471;80;25924;-78
2020/12/30 10:19:56;;;;;;;37.67;20.43;;;;;;;3.91;84.46;99480.36;1760472;80;25812;-78
2020/12/30 10:22:24;;;;;;;36.42;21.23;;;;;;;3.94;84.56;99484.50;1704599;80;27740;-78
2020/12/30 10:24:51;;;;;;;36.58;20.95;;;;;;;3.97;84.63;99484.16;1740056;80;25870;-79
2020/12/30 10:27:19;;;;;;;37.05;20.43;;;;;;;4.01;84.68;99480.17;1694928;80;26724;-79
2020/12/30 10:29:46;;;;;;;32.20;17.85;;;;;;;4.02;84.63;99481.00;1755324;80;25808;-79
2020/12/30 10:32:14;;;;;;;31.73;17.37;;;;;;;4.03;84.72;99476.02;1687775;80;26158;-78
2020/12/30 10:34:41;;;;;;;28.15;16.85;;;;;;;4.05;84.74;99471.37;1712889;80;28575;-79
2020/12/30 10:37:09;;;;;;;32.63;18.42;;;;;;;4.07;84.87;99467.55;1675755;83;25502;-79
2020/12/30 10:39:36;;;;;;;29.87;17.20;;;;;;;4.11;84.94;99463.55;1698793;83;25737;-79
2020/12/30 10:42:04;;;;;;;33.13;17.67;;;;;;;4.18;85.11;99456.58;1678556;83;26549;-79
2020/12/30 10:44:33;;;;;;;29.02;16.17;;;;;;;4.23;85.08;99450.27;1694139;81;25844;-79
2020/12/30 10:47:00;;;;;;;25.77;14.83;;;;;;;4.26;85.18;99445.92;1690455;81;26477;-79
2020/12/30 10:49:28;;;;;;;31.10;17.95;;;;;;;4.27;85.32;99440.12;1691452;81;25833;-79
2020/12/30 10:51:55;;;;;;;23.35;15.20;;;;;;;4.30;85.39;99435.29;1706339;82;25865;-79
2020/12/30 10:54:23;;;;;;;27.65;16.12;;;;;;;4.33;85.38;99425.67;1675473;82;25787;-79
2020/12/30 10:56:53;;;;;;;27.93;15.30;;;;;;;4.36;85.52;99417.35;1725112;81;26309;-79
2020/12/30 10:59:22;;;;;;;26.20;15.47;;;;;;;4.39;85.70;99416.18;1718191;82;27519;-79
2020/12/30 11:01:50;;;;;;;30.48;16.95;;;;;;;4.44;85.80;99413.84;1705300;82;25805;-79
2020/12/30 11:04:18;;;;;;;29.60;16.23;;;;;;;4.46;85.86;99409.19;1717777;82;26443;-79
2020/12/30 11:06:46;;;;;;;30.68;16.75;;;;;;;4.51;85.95;99408.96;1663672;83;25881;-79
2020/12/30 11:09:13;;;;;;;29.25;17.23;;;;;;;4.56;85.98;99401.31;1658762;84;25853;-79
2020/12/30 11:11:41;;;;;;;28.70;17.30;;;;;;;4.61;86.07;99401.61;1682489;83;28914;-79
2020/12/30 11:14:09;;;;;;;28.25;15.83;;;;;;;4.68;86.12;99407.03;1671193;83;25910;-79
2020/12/30 11:16:36;;;;;;;27.30;16.87;;;;;;;4.73;86.06;99409.16;1647627;85;25986;-79
2020/12/30 11:19:03;;;;;;;25.15;16.23;;;;;;;4.78;86.07;99401.47;1691643;83;26157;-79
2020/12/30 11:21:30;;;;;;;25.32;16.17;;;;;;;4.85;86.07;99396.61;1692481;83;26268;-79
2020/12/30 11:23:58;;;;;;;27.30;16.45;;;;;;;4.92;86.07;99399.37;1707225;83;26857;-79
2020/12/30 11:26:25;;;;;;;34.10;22.50;;;;;;;4.97;86.14;99396.98;1682205;84;25892;-80
2020/12/30 11:28:52;;;;;;;34.30;22.82;;;;;;;5.04;86.12;99398.75;1698644;83;25950;-79
2020/12/30 11:31:20;;;;;;;31.05;22.27;;;;;;;5.07;85.96;99394.92;1673331;83;26528;-79
2020/12/30 11:33:47;;;;;;;36.75;22.02;;;;;;;5.09;85.77;99390.25;1662549;82;25848;-80
2020/12/30 11:36:15;;;;;;;37.10;22.58;;;;;;;5.11;85.84;99388.23;1678003;82;27326;-80
2020/12/30 11:38:42;;;;;;;36.80;21.62;;;;;;;5.15;85.78;99382.89;1725854;82;26516;-79
2020/12/30 11:41:11;;;;;;;31.77;19.70;;;;;;;5.17;85.62;99391.49;1672117;82;25795;-80
2020/12/30 11:43:39;;;;;;;31.12;20.70;;;;;;;5.15;85.53;99389.03;1703430;83;25887;-80